sensor_id;sensor_type;location;lat;lon;timestamp;P1;durP1;ratioP1;P2;durP2;ratioP2
57389;SDS011;43217;52.694;6.214;2022-11-18T00:01:31;8.75;;;5.95;;
57389;SDS011;43217;52.694;6.214;2022-11-18T00:06:23;8.95;;;6.13;;
57389;SDS011;43217;52.694;6.214;2022-11-18T00:08:51;10.13;;;6.60;;
57389;SDS011;43217;52.694;6.214;2022-11-18T00:11:19;9.10;;;6.40;;
57389;SDS011;43217;52.694;6.214;2022-11-18T00:14:05;8.77;;;6.68;;
57389;SDS011;43217;52.694;6.214;2022-11-18T00:19:21;9.27;;;6.85;;
57389;SDS011;43217;52.694;6.214;2022-11-18T00:21:48;10.65;;;6.65;;
57389;SDS011;43217;52.694;6.214;2022-11-18T00:24:14;9.43;;;6.25;;
57389;SDS011;43217;52.694;6.214;2022-11-18T00:26:40;9.98;;;6.72;;
57389;SDS011;43217;52.694;6.214;2022-11-18T00:29:07;9.70;;;7.03;;
57389;SDS011;43217;52.694;6.214;2022-11-18T00:31:34;11.00;;;6.93;;
57389;SDS011;43217;52.694;6.214;2022-11-18T00:34:00;9.30;;;7.07;;
57389;SDS011;43217;52.694;6.214;2022-11-18T00:36:25;10.45;;;7.35;;
57389;SDS011;43217;52.694;6.214;2022-11-18T00:38:53;8.95;;;7.38;;
57389;SDS011;43217;52.694;6.214;2022-11-18T00:41:18;11.07;;;7.40;;
57389;SDS011;43217;52.694;6.214;2022-11-18T00:43:44;11.63;;;7.70;;
57389;SDS011;43217;52.694;6.214;2022-11-18T00:46:10;14.52;;;8.88;;
57389;SDS011;43217;52.694;6.214;2022-11-18T00:48:36;12.77;;;8.10;;
57389;SDS011;43217;52.694;6.214;2022-11-18T00:51:07;11.02;;;8.40;;
57389;SDS011;43217;52.694;6.214;2022-11-18T00:53:40;11.55;;;8.50;;
57389;SDS011;43217;52.694;6.214;2022-11-18T00:56:07;9.48;;;8.35;;
57389;SDS011;43217;52.694;6.214;2022-11-18T00:58:33;11.02;;;8.70;;
57389;SDS011;43217;52.694;6.214;2022-11-18T01:00:59;12.23;;;8.95;;
57389;SDS011;43217;52.694;6.214;2022-11-18T01:03:25;13.25;;;9.10;;
57389;SDS011;43217;52.694;6.214;2022-11-18T01:05:52;13.95;;;9.13;;
57389;SDS011;43217;52.694;6.214;2022-11-18T01:08:18;9.95;;;8.85;;
57389;SDS011;43217;52.694;6.214;2022-11-18T01:10:44;10.38;;;8.88;;
57389;SDS011;43217;52.694;6.214;2022-11-18T01:13:11;14.18;;;9.80;;
57389;SDS011;43217;52.694;6.214;2022-11-18T01:15:51;13.80;;;10.00;;
57389;SDS011;43217;52.694;6.214;2022-11-18T01:18:19;14.98;;;9.70;;
57389;SDS011;43217;52.694;6.214;2022-11-18T01:20:47;13.43;;;9.57;;
57389;SDS011;43217;52.694;6.214;2022-11-18T01:23:13;12.40;;;8.73;;
57389;SDS011;43217;52.694;6.214;2022-11-18T01:25:39;13.02;;;9.32;;
57389;SDS011;43217;52.694;6.214;2022-11-18T01:28:06;13.90;;;9.25;;
57389;SDS011;43217;52.694;6.214;2022-11-18T01:30:35;11.23;;;9.52;;
57389;SDS011;43217;52.694;6.214;2022-11-18T01:33:02;11.57;;;9.40;;
57389;SDS011;43217;52.694;6.214;2022-11-18T01:35:33;12.80;;;10.07;;
57389;SDS011;43217;52.694;6.214;2022-11-18T01:37:59;13.48;;;10.27;;
57389;SDS011;43217;52.694;6.214;2022-11-18T01:40:25;14.23;;;10.63;;
57389;SDS011;43217;52.694;6.214;2022-11-18T01:42:51;12.80;;;10.43;;
57389;SDS011;43217;52.694;6.214;2022-11-18T01:45:25;13.38;;;10.40;;
57389;SDS011;43217;52.694;6.214;2022-11-18T01:48:08;14.57;;;10.88;;
57389;SDS011;43217;52.694;6.214;2022-11-18T01:50:44;14.88;;;11.30;;
57389;SDS011;43217;52.694;6.214;2022-11-18T01:53:21;13.23;;;11.82;;
57389;SDS011;43217;52.694;6.214;2022-11-18T01:55:50;15.65;;;12.43;;
57389;SDS011;43217;52.694;6.214;2022-11-18T01:58:22;15.38;;;13.13;;
57389;SDS011;43217;52.694;6.214;2022-11-18T02:00:55;15.90;;;12.65;;
57389;SDS011;43217;52.694;6.214;2022-11-18T02:05:49;16.03;;;14.33;;
57389;SDS011;43217;52.694;6.214;2022-11-18T02:08:17;17.02;;;15.00;;
57389;SDS011;43217;52.694;6.214;2022-11-18T02:10:43;19.00;;;14.82;;
57389;SDS011;43217;52.694;6.214;2022-11-18T02:13:09;19.77;;;15.75;;
57389;SDS011;43217;52.694;6.214;2022-11-18T02:15:56;18.08;;;15.88;;
57389;SDS011;43217;52.694;6.214;2022-11-18T02:18:46;22.75;;;18.08;;
57389;SDS011;43217;52.694;6.214;2022-11-18T02:21:20;21.88;;;19.55;;
57389;SDS011;43217;52.694;6.214;2022-11-18T02:23:54;24.30;;;20.50;;
57389;SDS011;43217;52.694;6.214;2022-11-18T02:26:53;26.30;;;22.17;;
57389;SDS011;43217;52.694;6.214;2022-11-18T02:29:25;27.65;;;23.15;;
57389;SDS011;43217;52.694;6.214;2022-11-18T02:32:00;27.65;;;22.88;;
57389;SDS011;43217;52.694;6.214;2022-11-18T02:40:02;30.88;;;25.90;;
57389;SDS011;43217;52.694;6.214;2022-11-18T02:42:33;33.25;;;27.10;;
57389;SDS011;43217;52.694;6.214;2022-11-18T02:45:11;34.25;;;28.05;;
57389;SDS011;43217;52.694;6.214;2022-11-18T02:47:41;33.58;;;26.92;;
57389;SDS011;43217;52.694;6.214;2022-11-18T02:50:10;35.13;;;28.80;;
57389;SDS011;43217;52.694;6.214;2022-11-18T02:52:39;40.17;;;29.38;;
57389;SDS011;43217;52.694;6.214;2022-11-18T02:55:08;36.45;;;29.77;;
57389;SDS011;43217;52.694;6.214;2022-11-18T02:57:36;38.53;;;30.67;;
57389;SDS011;43217;52.694;6.214;2022-11-18T03:00:04;40.10;;;31.05;;
57389;SDS011;43217;52.694;6.214;2022-11-18T03:02:38;41.85;;;31.38;;
57389;SDS011;43217;52.694;6.214;2022-11-18T03:05:09;41.78;;;30.33;;
57389;SDS011;43217;52.694;6.214;2022-11-18T03:07:42;48.50;;;31.73;;
57389;SDS011;43217;52.694;6.214;2022-11-18T03:10:10;43.95;;;32.38;;
57389;SDS011;43217;52.694;6.214;2022-11-18T03:12:40;46.83;;;33.45;;
57389;SDS011;43217;52.694;6.214;2022-11-18T03:15:20;47.53;;;33.10;;
57389;SDS011;43217;52.694;6.214;2022-11-18T03:21:01;48.03;;;33.92;;
57389;SDS011;43217;52.694;6.214;2022-11-18T03:23:37;61.90;;;37.55;;
57389;SDS011;43217;52.694;6.214;2022-11-18T03:26:12;52.65;;;35.97;;
57389;SDS011;43217;52.694;6.214;2022-11-18T03:31:22;58.47;;;36.83;;
57389;SDS011;43217;52.694;6.214;2022-11-18T03:33:59;61.45;;;37.47;;
57389;SDS011;43217;52.694;6.214;2022-11-18T03:36:31;53.60;;;35.75;;
57389;SDS011;43217;52.694;6.214;2022-11-18T03:39:02;56.97;;;38.03;;
57389;SDS011;43217;52.694;6.214;2022-11-18T03:41:31;56.08;;;36.47;;
57389;SDS011;43217;52.694;6.214;2022-11-18T03:44:08;57.75;;;37.85;;
57389;SDS011;43217;52.694;6.214;2022-11-18T03:46:38;53.63;;;35.90;;
57389;SDS011;43217;52.694;6.214;2022-11-18T03:49:10;51.85;;;34.88;;
57389;SDS011;43217;52.694;6.214;2022-11-18T03:51:41;60.55;;;36.53;;
57389;SDS011;43217;52.694;6.214;2022-11-18T03:54:23;61.28;;;36.95;;
57389;SDS011;43217;52.694;6.214;2022-11-18T03:56:56;52.42;;;35.13;;
57389;SDS011;43217;52.694;6.214;2022-11-18T04:02:10;54.88;;;34.78;;
57389;SDS011;43217;52.694;6.214;2022-11-18T04:04:39;54.80;;;35.75;;
57389;SDS011;43217;52.694;6.214;2022-11-18T04:09:55;51.95;;;34.10;;
57389;SDS011;43217;52.694;6.214;2022-11-18T04:12:25;50.13;;;33.92;;
57389;SDS011;43217;52.694;6.214;2022-11-18T04:14:55;52.00;;;35.75;;
57389;SDS011;43217;52.694;6.214;2022-11-18T04:17:21;50.28;;;34.83;;
57389;SDS011;43217;52.694;6.214;2022-11-18T04:19:50;48.95;;;34.00;;
57389;SDS011;43217;52.694;6.214;2022-11-18T04:22:16;50.22;;;34.63;;
57389;SDS011;43217;52.694;6.214;2022-11-18T04:24:43;51.58;;;32.85;;
57389;SDS011;43217;52.694;6.214;2022-11-18T04:27:09;49.30;;;33.08;;
57389;SDS011;43217;52.694;6.214;2022-11-18T04:29:35;51.72;;;33.60;;
57389;SDS011;43217;52.694;6.214;2022-11-18T04:32:00;51.22;;;32.00;;
57389;SDS011;43217;52.694;6.214;2022-11-18T04:34:26;50.00;;;34.67;;
57389;SDS011;43217;52.694;6.214;2022-11-18T04:36:52;50.53;;;33.90;;
57389;SDS011;43217;52.694;6.214;2022-11-18T04:39:18;54.50;;;35.15;;
57389;SDS011;43217;52.694;6.214;2022-11-18T04:41:44;51.67;;;34.55;;
57389;SDS011;43217;52.694;6.214;2022-11-18T04:44:26;49.33;;;34.30;;
57389;SDS011;43217;52.694;6.214;2022-11-18T04:46:54;47.25;;;32.60;;
57389;SDS011;43217;52.694;6.214;2022-11-18T04:49:21;52.30;;;34.58;;
57389;SDS011;43217;52.694;6.214;2022-11-18T04:51:47;50.13;;;34.80;;
57389;SDS011;43217;52.694;6.214;2022-11-18T04:54:13;50.90;;;35.20;;
57389;SDS011;43217;52.694;6.214;2022-11-18T04:56:39;53.70;;;33.58;;
57389;SDS011;43217;52.694;6.214;2022-11-18T04:59:06;52.63;;;35.78;;
57389;SDS011;43217;52.694;6.214;2022-11-18T05:01:32;52.47;;;35.10;;
57389;SDS011;43217;52.694;6.214;2022-11-18T05:04:01;54.67;;;34.65;;
57389;SDS011;43217;52.694;6.214;2022-11-18T05:06:27;54.30;;;35.40;;
57389;SDS011;43217;52.694;6.214;2022-11-18T05:08:54;50.88;;;35.38;;
57389;SDS011;43217;52.694;6.214;2022-11-18T05:11:21;52.33;;;34.55;;
57389;SDS011;43217;52.694;6.214;2022-11-18T05:14:05;49.90;;;34.13;;
57389;SDS011;43217;52.694;6.214;2022-11-18T05:16:31;51.85;;;34.65;;
57389;SDS011;43217;52.694;6.214;2022-11-18T05:18:56;55.65;;;35.58;;
57389;SDS011;43217;52.694;6.214;2022-11-18T05:21:22;54.72;;;35.80;;
57389;SDS011;43217;52.694;6.214;2022-11-18T05:23:48;53.70;;;35.20;;
57389;SDS011;43217;52.694;6.214;2022-11-18T05:26:13;52.22;;;33.50;;
57389;SDS011;43217;52.694;6.214;2022-11-18T05:28:39;54.60;;;35.13;;
57389;SDS011;43217;52.694;6.214;2022-11-18T05:31:05;52.47;;;34.22;;
57389;SDS011;43217;52.694;6.214;2022-11-18T05:33:35;47.95;;;34.20;;
57389;SDS011;43217;52.694;6.214;2022-11-18T05:36:01;48.10;;;32.95;;
57389;SDS011;43217;52.694;6.214;2022-11-18T05:38:32;50.45;;;33.40;;
57389;SDS011;43217;52.694;6.214;2022-11-18T05:43:25;51.22;;;34.25;;
57389;SDS011;43217;52.694;6.214;2022-11-18T05:45:51;49.17;;;34.45;;
57389;SDS011;43217;52.694;6.214;2022-11-18T05:48:17;52.10;;;34.83;;
57389;SDS011;43217;52.694;6.214;2022-11-18T05:50:45;49.53;;;33.35;;
57389;SDS011;43217;52.694;6.214;2022-11-18T05:53:12;47.50;;;32.72;;
57389;SDS011;43217;52.694;6.214;2022-11-18T05:58:28;52.05;;;33.72;;
57389;SDS011;43217;52.694;6.214;2022-11-18T06:00:54;54.08;;;34.35;;
57389;SDS011;43217;52.694;6.214;2022-11-18T06:03:25;47.67;;;32.15;;
57389;SDS011;43217;52.694;6.214;2022-11-18T06:05:55;50.10;;;34.38;;
57389;SDS011;43217;52.694;6.214;2022-11-18T06:08:25;46.85;;;33.05;;
57389;SDS011;43217;52.694;6.214;2022-11-18T06:10:53;48.92;;;34.75;;
57389;SDS011;43217;52.694;6.214;2022-11-18T06:13:22;51.55;;;32.97;;
57389;SDS011;43217;52.694;6.214;2022-11-18T06:15:54;51.83;;;33.90;;
57389;SDS011;43217;52.694;6.214;2022-11-18T06:18:23;50.35;;;33.33;;
57389;SDS011;43217;52.694;6.214;2022-11-18T06:20:55;52.80;;;34.65;;
57389;SDS011;43217;52.694;6.214;2022-11-18T06:23:24;53.67;;;35.03;;
57389;SDS011;43217;52.694;6.214;2022-11-18T06:25:50;47.40;;;34.57;;
57389;SDS011;43217;52.694;6.214;2022-11-18T06:28:16;48.72;;;32.60;;
57389;SDS011;43217;52.694;6.214;2022-11-18T06:30:42;49.15;;;32.47;;
57389;SDS011;43217;52.694;6.214;2022-11-18T06:33:08;47.53;;;32.25;;
57389;SDS011;43217;52.694;6.214;2022-11-18T06:35:34;47.08;;;32.05;;
57389;SDS011;43217;52.694;6.214;2022-11-18T06:38:00;47.65;;;32.05;;
57389;SDS011;43217;52.694;6.214;2022-11-18T06:40:25;46.47;;;33.08;;
57389;SDS011;43217;52.694;6.214;2022-11-18T06:42:51;46.85;;;32.58;;
57389;SDS011;43217;52.694;6.214;2022-11-18T06:45:35;46.85;;;33.08;;
57389;SDS011;43217;52.694;6.214;2022-11-18T06:48:00;45.42;;;32.47;;
57389;SDS011;43217;52.694;6.214;2022-11-18T06:50:27;51.47;;;33.75;;
57389;SDS011;43217;52.694;6.214;2022-11-18T06:52:52;47.63;;;31.55;;
57389;SDS011;43217;52.694;6.214;2022-11-18T06:55:18;50.88;;;33.97;;
57389;SDS011;43217;52.694;6.214;2022-11-18T06:57:44;50.53;;;33.15;;
57389;SDS011;43217;52.694;6.214;2022-11-18T07:00:10;54.80;;;32.63;;
57389;SDS011;43217;52.694;6.214;2022-11-18T07:02:36;47.30;;;31.95;;
57389;SDS011;43217;52.694;6.214;2022-11-18T07:05:02;47.13;;;33.15;;
57389;SDS011;43217;52.694;6.214;2022-11-18T07:07:29;47.67;;;33.55;;
57389;SDS011;43217;52.694;6.214;2022-11-18T07:09:55;47.42;;;32.53;;
57389;SDS011;43217;52.694;6.214;2022-11-18T07:12:21;47.47;;;32.63;;
57389;SDS011;43217;52.694;6.214;2022-11-18T07:14:46;46.55;;;30.90;;
57389;SDS011;43217;52.694;6.214;2022-11-18T07:17:12;45.72;;;32.70;;
57389;SDS011;43217;52.694;6.214;2022-11-18T07:19:38;47.78;;;31.10;;
57389;SDS011;43217;52.694;6.214;2022-11-18T07:22:04;47.58;;;32.45;;
57389;SDS011;43217;52.694;6.214;2022-11-18T07:24:32;48.15;;;31.48;;
57389;SDS011;43217;52.694;6.214;2022-11-18T07:26:57;44.97;;;30.83;;
57389;SDS011;43217;52.694;6.214;2022-11-18T07:29:23;46.67;;;31.70;;
57389;SDS011;43217;52.694;6.214;2022-11-18T07:31:49;43.65;;;30.10;;
57389;SDS011;43217;52.694;6.214;2022-11-18T07:34:14;44.75;;;31.20;;
57389;SDS011;43217;52.694;6.214;2022-11-18T07:36:40;43.13;;;30.65;;
57389;SDS011;43217;52.694;6.214;2022-11-18T07:39:06;43.42;;;30.50;;
57389;SDS011;43217;52.694;6.214;2022-11-18T07:41:32;45.03;;;31.13;;
57389;SDS011;43217;52.694;6.214;2022-11-18T07:43:59;41.97;;;30.50;;
57389;SDS011;43217;52.694;6.214;2022-11-18T07:46:27;42.97;;;29.58;;
57389;SDS011;43217;52.694;6.214;2022-11-18T07:48:58;45.78;;;30.63;;
57389;SDS011;43217;52.694;6.214;2022-11-18T07:51:29;41.97;;;30.80;;
57389;SDS011;43217;52.694;6.214;2022-11-18T07:53:58;43.95;;;30.17;;
57389;SDS011;43217;52.694;6.214;2022-11-18T07:56:24;43.83;;;30.90;;
57389;SDS011;43217;52.694;6.214;2022-11-18T07:58:54;41.85;;;29.10;;
57389;SDS011;43217;52.694;6.214;2022-11-18T08:01:20;41.58;;;28.48;;
57389;SDS011;43217;52.694;6.214;2022-11-18T08:03:48;43.42;;;30.23;;
57389;SDS011;43217;52.694;6.214;2022-11-18T08:06:14;38.55;;;28.05;;
57389;SDS011;43217;52.694;6.214;2022-11-18T08:11:08;38.38;;;26.70;;
57389;SDS011;43217;52.694;6.214;2022-11-18T08:13:38;35.65;;;27.15;;
57389;SDS011;43217;52.694;6.214;2022-11-18T08:16:04;37.47;;;26.25;;
57389;SDS011;43217;52.694;6.214;2022-11-18T08:18:41;34.17;;;24.55;;
57389;SDS011;43217;52.694;6.214;2022-11-18T08:21:07;31.85;;;23.73;;
57389;SDS011;43217;52.694;6.214;2022-11-18T08:23:32;29.38;;;21.95;;
57389;SDS011;43217;52.694;6.214;2022-11-18T08:26:05;35.28;;;24.77;;
57389;SDS011;43217;52.694;6.214;2022-11-18T08:28:34;32.95;;;23.27;;
57389;SDS011;43217;52.694;6.214;2022-11-18T08:30:59;32.15;;;23.73;;
57389;SDS011;43217;52.694;6.214;2022-11-18T08:33:32;31.83;;;23.75;;
57389;SDS011;43217;52.694;6.214;2022-11-18T08:36:03;29.92;;;22.05;;
57389;SDS011;43217;52.694;6.214;2022-11-18T08:38:31;31.13;;;22.88;;
57389;SDS011;43217;52.694;6.214;2022-11-18T08:40:56;31.00;;;23.45;;
57389;SDS011;43217;52.694;6.214;2022-11-18T08:43:22;26.42;;;21.17;;
57389;SDS011;43217;52.694;6.214;2022-11-18T08:45:48;28.80;;;21.88;;
57389;SDS011;43217;52.694;6.214;2022-11-18T08:48:13;28.15;;;21.77;;
57389;SDS011;43217;52.694;6.214;2022-11-18T08:50:39;28.33;;;21.15;;
57389;SDS011;43217;52.694;6.214;2022-11-18T08:53:04;28.30;;;20.88;;
57389;SDS011;43217;52.694;6.214;2022-11-18T08:55:30;27.90;;;21.23;;
57389;SDS011;43217;52.694;6.214;2022-11-18T08:57:56;27.02;;;21.00;;
57389;SDS011;43217;52.694;6.214;2022-11-18T09:00:21;27.70;;;21.67;;
57389;SDS011;43217;52.694;6.214;2022-11-18T09:02:47;26.58;;;20.70;;
57389;SDS011;43217;52.694;6.214;2022-11-18T09:05:13;29.60;;;21.80;;
57389;SDS011;43217;52.694;6.214;2022-11-18T09:07:38;26.33;;;20.17;;
57389;SDS011;43217;52.694;6.214;2022-11-18T09:10:04;28.42;;;21.63;;
57389;SDS011;43217;52.694;6.214;2022-11-18T09:12:30;28.90;;;21.17;;
57389;SDS011;43217;52.694;6.214;2022-11-18T09:14:55;30.00;;;21.08;;
57389;SDS011;43217;52.694;6.214;2022-11-18T09:17:21;31.88;;;21.73;;
57389;SDS011;43217;52.694;6.214;2022-11-18T09:19:47;31.17;;;21.83;;
57389;SDS011;43217;52.694;6.214;2022-11-18T09:22:12;30.08;;;21.80;;
57389;SDS011;43217;52.694;6.214;2022-11-18T09:24:38;27.27;;;19.48;;
57389;SDS011;43217;52.694;6.214;2022-11-18T09:27:05;27.85;;;20.45;;
57389;SDS011;43217;52.694;6.214;2022-11-18T09:29:31;28.55;;;20.25;;
57389;SDS011;43217;52.694;6.214;2022-11-18T09:31:57;27.48;;;20.50;;
57389;SDS011;43217;52.694;6.214;2022-11-18T09:34:26;27.08;;;19.55;;
57389;SDS011;43217;52.694;6.214;2022-11-18T09:36:52;28.83;;;19.98;;
57389;SDS011;43217;52.694;6.214;2022-11-18T09:39:20;29.38;;;19.90;;
57389;SDS011;43217;52.694;6.214;2022-11-18T09:41:47;27.83;;;19.75;;
57389;SDS011;43217;52.694;6.214;2022-11-18T09:44:19;30.08;;;20.48;;
57389;SDS011;43217;52.694;6.214;2022-11-18T09:47:03;24.63;;;18.75;;
57389;SDS011;43217;52.694;6.214;2022-11-18T09:49:36;28.67;;;19.60;;
57389;SDS011;43217;52.694;6.214;2022-11-18T09:54:47;22.92;;;17.52;;
57389;SDS011;43217;52.694;6.214;2022-11-18T09:57:20;31.30;;;21.65;;
57389;SDS011;43217;52.694;6.214;2022-11-18T09:59:52;26.00;;;19.67;;
57389;SDS011;43217;52.694;6.214;2022-11-18T10:05:18;25.13;;;17.80;;
57389;SDS011;43217;52.694;6.214;2022-11-18T10:07:47;20.70;;;16.48;;
57389;SDS011;43217;52.694;6.214;2022-11-18T10:10:16;23.30;;;17.00;;
57389;SDS011;43217;52.694;6.214;2022-11-18T10:13:01;22.17;;;17.80;;
57389;SDS011;43217;52.694;6.214;2022-11-18T10:15:59;19.92;;;15.73;;
57389;SDS011;43217;52.694;6.214;2022-11-18T10:26:49;23.63;;;17.90;;
57389;SDS011;43217;52.694;6.214;2022-11-18T10:29:23;25.80;;;18.30;;
57389;SDS011;43217;52.694;6.214;2022-11-18T10:34:21;27.73;;;18.63;;
57389;SDS011;43217;52.694;6.214;2022-11-18T10:37:00;25.85;;;18.38;;
57389;SDS011;43217;52.694;6.214;2022-11-18T10:39:26;26.63;;;19.08;;
57389;SDS011;43217;52.694;6.214;2022-11-18T10:41:59;26.75;;;18.30;;
57389;SDS011;43217;52.694;6.214;2022-11-18T10:47:29;25.98;;;19.10;;
57389;SDS011;43217;52.694;6.214;2022-11-18T10:49:53;27.30;;;19.38;;
57389;SDS011;43217;52.694;6.214;2022-11-18T10:52:22;27.33;;;19.40;;
57389;SDS011;43217;52.694;6.214;2022-11-18T10:57:45;26.98;;;19.48;;
57389;SDS011;43217;52.694;6.214;2022-11-18T11:00:31;27.67;;;20.73;;
57389;SDS011;43217;52.694;6.214;2022-11-18T11:03:19;30.00;;;20.23;;
57389;SDS011;43217;52.694;6.214;2022-11-18T11:06:33;32.35;;;21.85;;
57389;SDS011;43217;52.694;6.214;2022-11-18T11:11:22;29.38;;;21.70;;
57389;SDS011;43217;52.694;6.214;2022-11-18T11:13:55;31.83;;;22.98;;
57389;SDS011;43217;52.694;6.214;2022-11-18T11:16:28;30.52;;;21.23;;
57389;SDS011;43217;52.694;6.214;2022-11-18T11:18:56;30.90;;;21.13;;
57389;SDS011;43217;52.694;6.214;2022-11-18T11:21:25;28.27;;;21.15;;
57389;SDS011;43217;52.694;6.214;2022-11-18T11:23:52;30.60;;;21.73;;
57389;SDS011;43217;52.694;6.214;2022-11-18T11:52:20;25.48;;;18.80;;
57389;SDS011;43217;52.694;6.214;2022-11-18T11:55:17;29.23;;;21.25;;
57389;SDS011;43217;52.694;6.214;2022-11-18T11:58:14;26.20;;;19.90;;
57389;SDS011;43217;52.694;6.214;2022-11-18T12:01:04;24.60;;;19.23;;
57389;SDS011;43217;52.694;6.214;2022-11-18T12:06:56;26.40;;;20.35;;
57389;SDS011;43217;52.694;6.214;2022-11-18T12:14:59;26.75;;;19.90;;
57389;SDS011;43217;52.694;6.214;2022-11-18T12:17:46;24.77;;;20.98;;
57389;SDS011;43217;52.694;6.214;2022-11-18T12:20:37;28.83;;;21.33;;
57389;SDS011;43217;52.694;6.214;2022-11-18T12:23:16;25.02;;;19.83;;
57389;SDS011;43217;52.694;6.214;2022-11-18T12:28:30;22.83;;;19.48;;
57389;SDS011;43217;52.694;6.214;2022-11-18T12:36:33;24.20;;;18.75;;
57389;SDS011;43217;52.694;6.214;2022-11-18T12:41:51;21.73;;;16.58;;
57389;SDS011;43217;52.694;6.214;2022-11-18T12:44:45;25.17;;;17.85;;
57389;SDS011;43217;52.694;6.214;2022-11-18T12:47:13;22.80;;;17.60;;
57389;SDS011;43217;52.694;6.214;2022-11-18T12:57:27;18.63;;;15.48;;
57389;SDS011;43217;52.694;6.214;2022-11-18T12:59:56;20.60;;;15.07;;
57389;SDS011;43217;52.694;6.214;2022-11-18T13:02:23;17.20;;;14.13;;
57389;SDS011;43217;52.694;6.214;2022-11-18T13:05:13;18.10;;;14.63;;
57389;SDS011;43217;52.694;6.214;2022-11-18T13:10:34;17.08;;;14.88;;
57389;SDS011;43217;52.694;6.214;2022-11-18T13:13:27;19.70;;;14.93;;
57389;SDS011;43217;52.694;6.214;2022-11-18T13:15:56;19.38;;;14.38;;
57389;SDS011;43217;52.694;6.214;2022-11-18T13:18:48;19.33;;;15.00;;
57389;SDS011;43217;52.694;6.214;2022-11-18T13:21:19;16.08;;;12.80;;
57389;SDS011;43217;52.694;6.214;2022-11-18T13:24:11;16.13;;;13.10;;
57389;SDS011;43217;52.694;6.214;2022-11-18T13:26:39;17.48;;;13.15;;
57389;SDS011;43217;52.694;6.214;2022-11-18T13:29:21;16.58;;;13.52;;
57389;SDS011;43217;52.694;6.214;2022-11-18T13:32:16;15.93;;;12.80;;
57389;SDS011;43217;52.694;6.214;2022-11-18T13:34:47;17.60;;;13.10;;
57389;SDS011;43217;52.694;6.214;2022-11-18T13:37:36;15.57;;;13.23;;
57389;SDS011;43217;52.694;6.214;2022-11-18T13:40:17;17.30;;;13.63;;
57389;SDS011;43217;52.694;6.214;2022-11-18T13:42:49;18.42;;;14.75;;
57389;SDS011;43217;52.694;6.214;2022-11-18T13:45:15;18.80;;;15.35;;
57389;SDS011;43217;52.694;6.214;2022-11-18T13:50:34;20.23;;;15.60;;
57389;SDS011;43217;52.694;6.214;2022-11-18T13:55:55;21.15;;;16.23;;
57389;SDS011;43217;52.694;6.214;2022-11-18T14:01:04;20.90;;;16.10;;
57389;SDS011;43217;52.694;6.214;2022-11-18T14:03:51;19.60;;;15.30;;
57389;SDS011;43217;52.694;6.214;2022-11-18T14:06:31;21.63;;;16.52;;
57389;SDS011;43217;52.694;6.214;2022-11-18T14:09:04;19.80;;;14.30;;
57389;SDS011;43217;52.694;6.214;2022-11-18T14:14:35;17.63;;;14.02;;
57389;SDS011;43217;52.694;6.214;2022-11-18T14:17:03;18.40;;;14.45;;
57389;SDS011;43217;52.694;6.214;2022-11-18T14:19:30;21.77;;;15.80;;
57389;SDS011;43217;52.694;6.214;2022-11-18T14:22:03;19.48;;;14.75;;
57389;SDS011;43217;52.694;6.214;2022-11-18T14:24:30;18.63;;;15.38;;
57389;SDS011;43217;52.694;6.214;2022-11-18T14:26:56;20.48;;;14.82;;
57389;SDS011;43217;52.694;6.214;2022-11-18T14:29:22;20.05;;;15.98;;
57389;SDS011;43217;52.694;6.214;2022-11-18T14:37:05;22.38;;;17.33;;
57389;SDS011;43217;52.694;6.214;2022-11-18T14:39:36;24.27;;;17.50;;
57389;SDS011;43217;52.694;6.214;2022-11-18T14:42:02;23.35;;;17.30;;
57389;SDS011;43217;52.694;6.214;2022-11-18T14:44:30;24.10;;;16.85;;
57389;SDS011;43217;52.694;6.214;2022-11-18T14:46:57;21.30;;;16.52;;
57389;SDS011;43217;52.694;6.214;2022-11-18T14:49:28;22.85;;;16.95;;
57389;SDS011;43217;52.694;6.214;2022-11-18T14:51:56;23.27;;;16.90;;
57389;SDS011;43217;52.694;6.214;2022-11-18T14:54:23;22.48;;;16.20;;
57389;SDS011;43217;52.694;6.214;2022-11-18T14:56:49;20.23;;;15.67;;
57389;SDS011;43217;52.694;6.214;2022-11-18T14:59:18;23.10;;;16.48;;
57389;SDS011;43217;52.694;6.214;2022-11-18T15:01:44;23.30;;;16.08;;
57389;SDS011;43217;52.694;6.214;2022-11-18T15:04:11;22.15;;;15.85;;
57389;SDS011;43217;52.694;6.214;2022-11-18T15:06:39;22.85;;;15.82;;
57389;SDS011;43217;52.694;6.214;2022-11-18T15:09:05;19.52;;;14.55;;
57389;SDS011;43217;52.694;6.214;2022-11-18T15:11:34;20.27;;;15.13;;
57389;SDS011;43217;52.694;6.214;2022-11-18T15:14:00;22.65;;;16.77;;
57389;SDS011;43217;52.694;6.214;2022-11-18T15:16:28;22.13;;;15.23;;
57389;SDS011;43217;52.694;6.214;2022-11-18T15:18:59;20.73;;;15.13;;
57389;SDS011;43217;52.694;6.214;2022-11-18T15:21:27;22.98;;;17.55;;
57389;SDS011;43217;52.694;6.214;2022-11-18T15:23:52;19.23;;;14.25;;
57389;SDS011;43217;52.694;6.214;2022-11-18T15:26:22;18.63;;;15.07;;
57389;SDS011;43217;52.694;6.214;2022-11-18T15:28:50;20.08;;;14.32;;
57389;SDS011;43217;52.694;6.214;2022-11-18T15:31:17;19.58;;;14.00;;
57389;SDS011;43217;52.694;6.214;2022-11-18T15:33:44;21.83;;;17.33;;
57389;SDS011;43217;52.694;6.214;2022-11-18T15:36:14;18.07;;;14.13;;
57389;SDS011;43217;52.694;6.214;2022-11-18T15:38:45;20.42;;;14.57;;
57389;SDS011;43217;52.694;6.214;2022-11-18T15:41:15;23.40;;;16.67;;
57389;SDS011;43217;52.694;6.214;2022-11-18T15:43:43;19.83;;;14.80;;
57389;SDS011;43217;52.694;6.214;2022-11-18T15:46:09;19.10;;;14.55;;
57389;SDS011;43217;52.694;6.214;2022-11-18T15:48:35;20.00;;;14.68;;
57389;SDS011;43217;52.694;6.214;2022-11-18T15:51:00;21.02;;;15.55;;
57389;SDS011;43217;52.694;6.214;2022-11-18T15:53:26;21.60;;;15.23;;
57389;SDS011;43217;52.694;6.214;2022-11-18T15:55:51;21.77;;;14.70;;
57389;SDS011;43217;52.694;6.214;2022-11-18T15:58:37;19.23;;;14.73;;
57389;SDS011;43217;52.694;6.214;2022-11-18T16:01:02;20.50;;;14.25;;
57389;SDS011;43217;52.694;6.214;2022-11-18T16:03:28;18.33;;;14.02;;
57389;SDS011;43217;52.694;6.214;2022-11-18T16:05:53;19.85;;;15.07;;
57389;SDS011;43217;52.694;6.214;2022-11-18T16:08:19;21.15;;;14.30;;
57389;SDS011;43217;52.694;6.214;2022-11-18T16:10:45;19.45;;;14.35;;
57389;SDS011;43217;52.694;6.214;2022-11-18T16:13:36;22.38;;;14.77;;
57389;SDS011;43217;52.694;6.214;2022-11-18T16:16:02;18.58;;;13.45;;
57389;SDS011;43217;52.694;6.214;2022-11-18T16:18:28;23.35;;;16.58;;
57389;SDS011;43217;52.694;6.214;2022-11-18T16:20:59;22.33;;;15.48;;
57389;SDS011;43217;52.694;6.214;2022-11-18T16:23:25;34.03;;;22.17;;
57389;SDS011;43217;52.694;6.214;2022-11-18T16:25:54;18.98;;;15.00;;
57389;SDS011;43217;52.694;6.214;2022-11-18T16:28:20;22.48;;;14.65;;
57389;SDS011;43217;52.694;6.214;2022-11-18T16:30:49;21.80;;;14.93;;
57389;SDS011;43217;52.694;6.214;2022-11-18T16:35:59;21.80;;;15.90;;
57389;SDS011;43217;52.694;6.214;2022-11-18T16:38:25;19.83;;;15.13;;
57389;SDS011;43217;52.694;6.214;2022-11-18T16:40:54;22.23;;;16.65;;
57389;SDS011;43217;52.694;6.214;2022-11-18T16:43:20;23.50;;;16.17;;
57389;SDS011;43217;52.694;6.214;2022-11-18T16:45:52;20.83;;;16.00;;
57389;SDS011;43217;52.694;6.214;2022-11-18T16:48:19;21.55;;;15.43;;
57389;SDS011;43217;52.694;6.214;2022-11-18T16:50:50;24.38;;;17.10;;
57389;SDS011;43217;52.694;6.214;2022-11-18T16:53:31;20.83;;;15.23;;